Hampton, FL

3:25 AM EST on December 11, 2019 (GMT -0500)
Happy Hippie House | | Change Station
Active Advisory: Special Statement

Elev 164 ft 29.79 °N, 82.13 °W | Updated 3 seconds ago

Overcast
Overcast
66.6 °F
Feels Like 66.6 °F
N
0
Wind Variable Wind from WSW
Gusts 0.0 mph

Today
High -- | Low -- °F
--% Chance of Precip.
Yesterday
High -- | Low -- °F
Precip. -- in
Pressure 30.12 in
Visibility 0.2 miles
Clouds Overcast 200 ft
Dew Point 66 °F
Humidity 99%
Rainfall 0.00 in
Snow Depth Not available.
7:13 AM 5:29 PM
Waxing Gibbous, 99% visible
METAR K42J 110815Z AUTO 00000KT M1/4SM FG OVC002 20/20 A3012 RMK A01 TSNO
Pressure 30.12 in
Visibility 0.2 miles
Clouds Overcast 200 ft
Dew Point 66 °F
Humidity 99%
Rainfall 0.00 in
Snow Depth Not available.
7:13 AM 5:29 PM
Waxing Gibbous, 99% visible
METAR K42J 110815Z AUTO 00000KT M1/4SM FG OVC002 20/20 A3012 RMK A01 TSNO

Get Your Daily Forecast Email!

Thanks for signing up!

Be on the lookout for a verification email in your inbox.

You'll start receiving severe weather alerts in your inbox..

×

10-Day Weather Forecast

Almanac

Astronomy

Dec. 11, 2019 Rise Set
Actual Time
Civil Twilight
Nautical Twilight
Astronomical Twilight
Moon
Length of Visible Light
Length of Day
Tomorrow will be .
, % of the Moon is Illuminated

Today's Extremes

State Highs State Lows

Community

WunderPhotos

Category 6

Welcome to Category 6. This is the collective home for Weather Underground's featured writeups by Dr. Jeff Masters (right), Bob Henson (left), Chris Burt, and other regular contributors.

Nearby

Air Quality

  Air Quality AQ Index Pollutant
Not available.

Snow Depth

Station Depth Elevation

Earthquake Activity

City Distance Mag. Time & Date
Minimum magnitude displayed is 2.5.

Coastal Water Temperatures

Place Temperature

Stations

Nearby Weather Stations

Station Location Temp. Windchill Dew Point Humidity Wind Precip. Elev Updated Type
                   

Watches & Warnings

Special Statement
Issued: 2:57 AM EST Dec. 11, 2019 – National Weather Service

... Patchy dense fog across portions of northeast Florida this morning...

Patchy dense fog was located across northeast Florida, mainly
along and south of a line from Jacksonville to Gainesville. The
nature of the fog is such that visibilities will vary greatly over
short distances. Motorists should be alert for rapidly changing
conditions through sunrise.


257 am EST Wed Dec 11 2019

... Patchy dense fog across portions of northeast Florida this morning...

Patchy dense fog was located across northeast Florida, mainly
along and south of a line from Jacksonville to Gainesville. The
nature of the fog is such that visibilities will vary greatly over
short distances. Motorists should be alert for rapidly changing
conditions through sunrise.